sensor_id;sensor_type;location;lat;lon;timestamp;P1;durP1;ratioP1;P2;durP2;ratioP2
22230;SDS011;11284;48.086;-1.652;2023-10-31T00:00:49;9.85;;;3.10;;
22230;SDS011;11284;48.086;-1.652;2023-10-31T00:03:15;9.32;;;3.17;;
22230;SDS011;11284;48.086;-1.652;2023-10-31T00:05:41;9.43;;;3.20;;
22230;SDS011;11284;48.086;-1.652;2023-10-31T00:08:08;10.40;;;3.05;;
22230;SDS011;11284;48.086;-1.652;2023-10-31T00:10:34;10.68;;;3.22;;
22230;SDS011;11284;48.086;-1.652;2023-10-31T00:13:00;7.45;;;3.00;;
22230;SDS011;11284;48.086;-1.652;2023-10-31T00:15:26;10.10;;;3.38;;
22230;SDS011;11284;48.086;-1.652;2023-10-31T00:17:54;7.70;;;3.05;;
22230;SDS011;11284;48.086;-1.652;2023-10-31T00:20:20;10.07;;;2.92;;
22230;SDS011;11284;48.086;-1.652;2023-10-31T00:22:46;9.60;;;3.05;;
22230;SDS011;11284;48.086;-1.652;2023-10-31T00:25:12;10.30;;;3.22;;
22230;SDS011;11284;48.086;-1.652;2023-10-31T00:27:38;7.13;;;2.60;;
22230;SDS011;11284;48.086;-1.652;2023-10-31T00:30:04;12.77;;;2.90;;
22230;SDS011;11284;48.086;-1.652;2023-10-31T00:32:30;7.82;;;2.47;;
22230;SDS011;11284;48.086;-1.652;2023-10-31T00:34:56;10.43;;;3.10;;
22230;SDS011;11284;48.086;-1.652;2023-10-31T00:37:22;10.25;;;3.15;;
22230;SDS011;11284;48.086;-1.652;2023-10-31T00:39:48;7.78;;;2.83;;
22230;SDS011;11284;48.086;-1.652;2023-10-31T00:42:14;10.60;;;3.30;;
22230;SDS011;11284;48.086;-1.652;2023-10-31T00:44:40;10.60;;;3.25;;
22230;SDS011;11284;48.086;-1.652;2023-10-31T00:47:06;10.38;;;3.42;;
22230;SDS011;11284;48.086;-1.652;2023-10-31T00:49:32;8.52;;;3.33;;
22230;SDS011;11284;48.086;-1.652;2023-10-31T00:51:58;12.73;;;3.50;;
22230;SDS011;11284;48.086;-1.652;2023-10-31T00:54:24;9.23;;;3.53;;
22230;SDS011;11284;48.086;-1.652;2023-10-31T00:56:50;8.27;;;3.50;;
22230;SDS011;11284;48.086;-1.652;2023-10-31T00:59:16;10.50;;;3.25;;
22230;SDS011;11284;48.086;-1.652;2023-10-31T01:01:42;7.78;;;2.95;;
22230;SDS011;11284;48.086;-1.652;2023-10-31T01:04:08;9.38;;;3.08;;
22230;SDS011;11284;48.086;-1.652;2023-10-31T01:06:39;7.75;;;2.95;;
22230;SDS011;11284;48.086;-1.652;2023-10-31T01:09:06;8.82;;;3.22;;
22230;SDS011;11284;48.086;-1.652;2023-10-31T01:11:31;10.73;;;3.30;;
22230;SDS011;11284;48.086;-1.652;2023-10-31T01:13:57;7.95;;;2.83;;
22230;SDS011;11284;48.086;-1.652;2023-10-31T01:16:23;11.50;;;3.40;;
22230;SDS011;11284;48.086;-1.652;2023-10-31T01:18:49;10.95;;;3.47;;
22230;SDS011;11284;48.086;-1.652;2023-10-31T01:21:15;9.00;;;3.42;;
22230;SDS011;11284;48.086;-1.652;2023-10-31T01:23:41;10.20;;;3.22;;
22230;SDS011;11284;48.086;-1.652;2023-10-31T01:26:07;11.07;;;2.83;;
22230;SDS011;11284;48.086;-1.652;2023-10-31T01:28:33;11.40;;;3.42;;
22230;SDS011;11284;48.086;-1.652;2023-10-31T01:30:59;9.20;;;3.78;;
22230;SDS011;11284;48.086;-1.652;2023-10-31T01:33:26;8.60;;;2.80;;
22230;SDS011;11284;48.086;-1.652;2023-10-31T01:35:52;7.75;;;2.88;;
22230;SDS011;11284;48.086;-1.652;2023-10-31T01:38:18;10.73;;;3.03;;
22230;SDS011;11284;48.086;-1.652;2023-10-31T01:40:44;8.88;;;3.30;;
22230;SDS011;11284;48.086;-1.652;2023-10-31T01:43:10;8.65;;;2.80;;
22230;SDS011;11284;48.086;-1.652;2023-10-31T01:45:36;7.97;;;2.55;;
22230;SDS011;11284;48.086;-1.652;2023-10-31T01:48:02;12.05;;;3.25;;
22230;SDS011;11284;48.086;-1.652;2023-10-31T01:50:28;8.52;;;2.72;;
22230;SDS011;11284;48.086;-1.652;2023-10-31T01:52:54;10.18;;;3.55;;
22230;SDS011;11284;48.086;-1.652;2023-10-31T01:55:20;9.93;;;2.85;;
22230;SDS011;11284;48.086;-1.652;2023-10-31T01:57:47;9.52;;;3.17;;
22230;SDS011;11284;48.086;-1.652;2023-10-31T02:00:14;8.35;;;2.95;;
22230;SDS011;11284;48.086;-1.652;2023-10-31T02:02:40;12.55;;;3.63;;
22230;SDS011;11284;48.086;-1.652;2023-10-31T02:05:10;9.70;;;2.97;;
22230;SDS011;11284;48.086;-1.652;2023-10-31T02:07:36;8.38;;;3.08;;
22230;SDS011;11284;48.086;-1.652;2023-10-31T02:10:02;7.50;;;3.10;;
22230;SDS011;11284;48.086;-1.652;2023-10-31T02:12:31;11.52;;;2.97;;
22230;SDS011;11284;48.086;-1.652;2023-10-31T02:14:58;11.73;;;3.53;;
22230;SDS011;11284;48.086;-1.652;2023-10-31T02:17:24;11.18;;;2.60;;
22230;SDS011;11284;48.086;-1.652;2023-10-31T02:19:50;8.73;;;2.88;;
22230;SDS011;11284;48.086;-1.652;2023-10-31T02:22:16;8.05;;;3.17;;
22230;SDS011;11284;48.086;-1.652;2023-10-31T02:24:42;7.97;;;2.83;;
22230;SDS011;11284;48.086;-1.652;2023-10-31T02:27:08;8.13;;;3.15;;
22230;SDS011;11284;48.086;-1.652;2023-10-31T02:29:34;12.20;;;3.05;;
22230;SDS011;11284;48.086;-1.652;2023-10-31T02:32:00;6.90;;;2.63;;
22230;SDS011;11284;48.086;-1.652;2023-10-31T02:34:26;8.25;;;2.70;;
22230;SDS011;11284;48.086;-1.652;2023-10-31T02:36:52;8.45;;;2.88;;
22230;SDS011;11284;48.086;-1.652;2023-10-31T02:39:18;10.35;;;3.10;;
22230;SDS011;11284;48.086;-1.652;2023-10-31T02:41:44;9.60;;;3.00;;
22230;SDS011;11284;48.086;-1.652;2023-10-31T02:44:10;8.23;;;3.15;;
22230;SDS011;11284;48.086;-1.652;2023-10-31T02:46:39;11.25;;;2.97;;
22230;SDS011;11284;48.086;-1.652;2023-10-31T02:49:05;10.93;;;3.03;;
22230;SDS011;11284;48.086;-1.652;2023-10-31T02:51:31;7.38;;;2.63;;
22230;SDS011;11284;48.086;-1.652;2023-10-31T02:53:57;8.27;;;2.75;;
22230;SDS011;11284;48.086;-1.652;2023-10-31T02:56:23;8.52;;;2.58;;
22230;SDS011;11284;48.086;-1.652;2023-10-31T02:58:50;6.43;;;2.65;;
22230;SDS011;11284;48.086;-1.652;2023-10-31T03:01:16;10.55;;;2.53;;
22230;SDS011;11284;48.086;-1.652;2023-10-31T03:03:45;7.70;;;2.95;;
22230;SDS011;11284;48.086;-1.652;2023-10-31T03:06:11;8.55;;;2.60;;
22230;SDS011;11284;48.086;-1.652;2023-10-31T03:08:37;8.93;;;2.60;;
22230;SDS011;11284;48.086;-1.652;2023-10-31T03:11:03;11.18;;;3.05;;
22230;SDS011;11284;48.086;-1.652;2023-10-31T03:13:29;9.02;;;2.53;;
22230;SDS011;11284;48.086;-1.652;2023-10-31T03:15:54;11.43;;;2.60;;
22230;SDS011;11284;48.086;-1.652;2023-10-31T03:18:20;7.53;;;2.40;;
22230;SDS011;11284;48.086;-1.652;2023-10-31T03:20:48;9.32;;;2.47;;
22230;SDS011;11284;48.086;-1.652;2023-10-31T03:23:14;9.25;;;2.65;;
22230;SDS011;11284;48.086;-1.652;2023-10-31T03:25:40;10.30;;;2.20;;
22230;SDS011;11284;48.086;-1.652;2023-10-31T03:28:14;10.68;;;2.90;;
22230;SDS011;11284;48.086;-1.652;2023-10-31T03:30:42;9.43;;;2.78;;
22230;SDS011;11284;48.086;-1.652;2023-10-31T03:33:08;8.63;;;2.53;;
22230;SDS011;11284;48.086;-1.652;2023-10-31T03:35:34;10.63;;;2.80;;
22230;SDS011;11284;48.086;-1.652;2023-10-31T03:38:00;8.75;;;2.20;;
22230;SDS011;11284;48.086;-1.652;2023-10-31T03:40:26;6.35;;;2.22;;
22230;SDS011;11284;48.086;-1.652;2023-10-31T03:42:52;6.63;;;2.03;;
22230;SDS011;11284;48.086;-1.652;2023-10-31T03:45:18;6.63;;;2.13;;
22230;SDS011;11284;48.086;-1.652;2023-10-31T03:47:44;8.02;;;2.30;;
22230;SDS011;11284;48.086;-1.652;2023-10-31T03:50:10;6.30;;;1.90;;
22230;SDS011;11284;48.086;-1.652;2023-10-31T03:52:36;9.18;;;2.45;;
22230;SDS011;11284;48.086;-1.652;2023-10-31T03:55:02;4.75;;;1.75;;
22230;SDS011;11284;48.086;-1.652;2023-10-31T03:57:28;6.78;;;2.10;;
22230;SDS011;11284;48.086;-1.652;2023-10-31T03:59:54;9.38;;;2.00;;
22230;SDS011;11284;48.086;-1.652;2023-10-31T04:02:20;6.63;;;2.03;;
22230;SDS011;11284;48.086;-1.652;2023-10-31T04:04:46;5.65;;;1.90;;
22230;SDS011;11284;48.086;-1.652;2023-10-31T04:07:12;8.32;;;2.00;;
22230;SDS011;11284;48.086;-1.652;2023-10-31T04:09:38;7.45;;;2.00;;
22230;SDS011;11284;48.086;-1.652;2023-10-31T04:12:04;6.30;;;2.05;;
22230;SDS011;11284;48.086;-1.652;2023-10-31T04:14:30;5.40;;;1.42;;
22230;SDS011;11284;48.086;-1.652;2023-10-31T04:16:56;4.95;;;1.83;;
22230;SDS011;11284;48.086;-1.652;2023-10-31T04:19:22;5.00;;;1.80;;
22230;SDS011;11284;48.086;-1.652;2023-10-31T04:21:48;5.15;;;1.75;;
22230;SDS011;11284;48.086;-1.652;2023-10-31T04:24:14;7.65;;;1.70;;
22230;SDS011;11284;48.086;-1.652;2023-10-31T04:26:40;6.65;;;1.98;;
22230;SDS011;11284;48.086;-1.652;2023-10-31T04:29:06;6.68;;;1.80;;
22230;SDS011;11284;48.086;-1.652;2023-10-31T04:31:32;7.45;;;1.65;;
22230;SDS011;11284;48.086;-1.652;2023-10-31T04:33:58;6.63;;;1.65;;
22230;SDS011;11284;48.086;-1.652;2023-10-31T04:36:24;7.78;;;2.00;;
22230;SDS011;11284;48.086;-1.652;2023-10-31T04:38:50;8.00;;;1.90;;
22230;SDS011;11284;48.086;-1.652;2023-10-31T04:41:16;8.23;;;1.90;;
22230;SDS011;11284;48.086;-1.652;2023-10-31T04:43:42;8.07;;;1.92;;
22230;SDS011;11284;48.086;-1.652;2023-10-31T04:46:08;8.80;;;2.13;;
22230;SDS011;11284;48.086;-1.652;2023-10-31T04:48:34;6.13;;;1.80;;
22230;SDS011;11284;48.086;-1.652;2023-10-31T04:51:00;5.55;;;1.90;;
22230;SDS011;11284;48.086;-1.652;2023-10-31T04:53:26;7.60;;;1.90;;
22230;SDS011;11284;48.086;-1.652;2023-10-31T04:55:52;7.70;;;1.73;;
22230;SDS011;11284;48.086;-1.652;2023-10-31T04:58:18;6.30;;;1.83;;
22230;SDS011;11284;48.086;-1.652;2023-10-31T05:00:44;5.15;;;1.70;;
22230;SDS011;11284;48.086;-1.652;2023-10-31T05:03:11;6.20;;;1.90;;
22230;SDS011;11284;48.086;-1.652;2023-10-31T05:05:37;6.38;;;2.20;;
22230;SDS011;11284;48.086;-1.652;2023-10-31T05:08:03;5.88;;;1.85;;
22230;SDS011;11284;48.086;-1.652;2023-10-31T05:10:29;5.32;;;1.42;;
22230;SDS011;11284;48.086;-1.652;2023-10-31T05:12:55;6.75;;;1.88;;
22230;SDS011;11284;48.086;-1.652;2023-10-31T05:15:22;7.25;;;2.42;;
22230;SDS011;11284;48.086;-1.652;2023-10-31T05:17:48;6.57;;;1.63;;
22230;SDS011;11284;48.086;-1.652;2023-10-31T05:20:14;6.95;;;1.60;;
22230;SDS011;11284;48.086;-1.652;2023-10-31T05:22:40;7.40;;;1.80;;
22230;SDS011;11284;48.086;-1.652;2023-10-31T05:25:06;6.50;;;1.55;;
22230;SDS011;11284;48.086;-1.652;2023-10-31T05:27:32;5.45;;;1.60;;
22230;SDS011;11284;48.086;-1.652;2023-10-31T05:29:58;5.97;;;1.95;;
22230;SDS011;11284;48.086;-1.652;2023-10-31T05:32:24;7.32;;;1.90;;
22230;SDS011;11284;48.086;-1.652;2023-10-31T05:34:50;6.30;;;1.50;;
22230;SDS011;11284;48.086;-1.652;2023-10-31T05:37:16;6.97;;;1.60;;
22230;SDS011;11284;48.086;-1.652;2023-10-31T05:39:42;7.63;;;1.40;;
22230;SDS011;11284;48.086;-1.652;2023-10-31T05:42:08;6.65;;;1.65;;
22230;SDS011;11284;48.086;-1.652;2023-10-31T05:44:34;8.40;;;2.10;;
22230;SDS011;11284;48.086;-1.652;2023-10-31T05:47:00;5.97;;;1.90;;
22230;SDS011;11284;48.086;-1.652;2023-10-31T05:49:26;6.35;;;1.83;;
22230;SDS011;11284;48.086;-1.652;2023-10-31T05:51:52;7.03;;;1.33;;
22230;SDS011;11284;48.086;-1.652;2023-10-31T05:54:18;8.18;;;1.77;;
22230;SDS011;11284;48.086;-1.652;2023-10-31T05:56:44;7.57;;;1.63;;
22230;SDS011;11284;48.086;-1.652;2023-10-31T05:59:11;6.47;;;1.70;;
22230;SDS011;11284;48.086;-1.652;2023-10-31T06:01:37;8.60;;;1.42;;
22230;SDS011;11284;48.086;-1.652;2023-10-31T06:04:03;8.98;;;1.80;;
22230;SDS011;11284;48.086;-1.652;2023-10-31T06:06:31;6.88;;;1.83;;
22230;SDS011;11284;48.086;-1.652;2023-10-31T06:08:57;10.63;;;1.60;;
22230;SDS011;11284;48.086;-1.652;2023-10-31T06:11:23;6.10;;;1.20;;
22230;SDS011;11284;48.086;-1.652;2023-10-31T06:13:49;6.65;;;1.55;;
22230;SDS011;11284;48.086;-1.652;2023-10-31T06:16:15;8.10;;;1.90;;
22230;SDS011;11284;48.086;-1.652;2023-10-31T06:18:41;5.68;;;1.50;;
22230;SDS011;11284;48.086;-1.652;2023-10-31T06:21:07;8.35;;;1.55;;
22230;SDS011;11284;48.086;-1.652;2023-10-31T06:23:36;6.97;;;1.70;;
22230;SDS011;11284;48.086;-1.652;2023-10-31T06:26:03;6.35;;;1.85;;
22230;SDS011;11284;48.086;-1.652;2023-10-31T06:28:29;6.97;;;1.63;;
22230;SDS011;11284;48.086;-1.652;2023-10-31T06:30:55;8.43;;;1.75;;
22230;SDS011;11284;48.086;-1.652;2023-10-31T06:33:21;8.30;;;1.83;;
22230;SDS011;11284;48.086;-1.652;2023-10-31T06:35:48;8.93;;;1.90;;
22230;SDS011;11284;48.086;-1.652;2023-10-31T06:38:14;9.10;;;1.50;;
22230;SDS011;11284;48.086;-1.652;2023-10-31T06:40:40;8.70;;;1.83;;
22230;SDS011;11284;48.086;-1.652;2023-10-31T06:43:06;8.70;;;1.90;;
22230;SDS011;11284;48.086;-1.652;2023-10-31T06:45:32;9.75;;;1.88;;
22230;SDS011;11284;48.086;-1.652;2023-10-31T06:47:57;7.38;;;1.60;;
22230;SDS011;11284;48.086;-1.652;2023-10-31T06:50:24;11.70;;;2.00;;
22230;SDS011;11284;48.086;-1.652;2023-10-31T06:52:50;8.15;;;2.00;;
22230;SDS011;11284;48.086;-1.652;2023-10-31T06:55:16;9.80;;;1.92;;
22230;SDS011;11284;48.086;-1.652;2023-10-31T06:57:42;8.88;;;1.95;;
22230;SDS011;11284;48.086;-1.652;2023-10-31T07:00:08;8.52;;;1.65;;
22230;SDS011;11284;48.086;-1.652;2023-10-31T07:02:34;10.88;;;2.13;;
22230;SDS011;11284;48.086;-1.652;2023-10-31T07:05:00;8.25;;;1.88;;
22230;SDS011;11284;48.086;-1.652;2023-10-31T07:07:28;8.60;;;1.92;;
22230;SDS011;11284;48.086;-1.652;2023-10-31T07:09:54;8.57;;;2.00;;
22230;SDS011;11284;48.086;-1.652;2023-10-31T07:12:20;8.80;;;2.08;;
22230;SDS011;11284;48.086;-1.652;2023-10-31T07:14:46;9.63;;;2.20;;
22230;SDS011;11284;48.086;-1.652;2023-10-31T07:17:12;11.50;;;2.58;;
22230;SDS011;11284;48.086;-1.652;2023-10-31T07:19:38;9.43;;;2.80;;
22230;SDS011;11284;48.086;-1.652;2023-10-31T07:22:04;11.00;;;2.58;;
22230;SDS011;11284;48.086;-1.652;2023-10-31T07:24:30;11.88;;;3.30;;
22230;SDS011;11284;48.086;-1.652;2023-10-31T07:26:56;10.00;;;2.85;;
22230;SDS011;11284;48.086;-1.652;2023-10-31T07:29:22;11.32;;;2.70;;
22230;SDS011;11284;48.086;-1.652;2023-10-31T07:31:48;14.25;;;2.60;;
22230;SDS011;11284;48.086;-1.652;2023-10-31T07:34:14;12.40;;;2.63;;
22230;SDS011;11284;48.086;-1.652;2023-10-31T07:36:41;8.25;;;2.10;;
22230;SDS011;11284;48.086;-1.652;2023-10-31T07:39:06;8.35;;;2.20;;
22230;SDS011;11284;48.086;-1.652;2023-10-31T07:41:33;8.57;;;2.47;;
22230;SDS011;11284;48.086;-1.652;2023-10-31T07:43:58;9.68;;;2.33;;
22230;SDS011;11284;48.086;-1.652;2023-10-31T07:46:25;9.82;;;2.05;;
22230;SDS011;11284;48.086;-1.652;2023-10-31T07:48:50;11.48;;;2.17;;
22230;SDS011;11284;48.086;-1.652;2023-10-31T07:51:16;10.45;;;2.50;;
22230;SDS011;11284;48.086;-1.652;2023-10-31T07:53:42;9.88;;;2.17;;
22230;SDS011;11284;48.086;-1.652;2023-10-31T07:56:15;14.60;;;2.80;;
22230;SDS011;11284;48.086;-1.652;2023-10-31T07:58:41;10.20;;;2.40;;
22230;SDS011;11284;48.086;-1.652;2023-10-31T08:01:07;10.88;;;2.10;;
22230;SDS011;11284;48.086;-1.652;2023-10-31T08:03:36;9.70;;;2.13;;
22230;SDS011;11284;48.086;-1.652;2023-10-31T08:06:03;10.77;;;2.20;;
22230;SDS011;11284;48.086;-1.652;2023-10-31T08:08:29;14.95;;;3.78;;
22230;SDS011;11284;48.086;-1.652;2023-10-31T08:10:55;15.43;;;2.70;;
22230;SDS011;11284;48.086;-1.652;2023-10-31T08:13:24;14.25;;;3.80;;
22230;SDS011;11284;48.086;-1.652;2023-10-31T08:15:50;14.48;;;3.53;;
22230;SDS011;11284;48.086;-1.652;2023-10-31T08:18:16;9.82;;;2.63;;
22230;SDS011;11284;48.086;-1.652;2023-10-31T08:20:42;13.82;;;2.88;;
22230;SDS011;11284;48.086;-1.652;2023-10-31T08:23:11;12.32;;;2.70;;
22230;SDS011;11284;48.086;-1.652;2023-10-31T08:25:37;16.88;;;2.67;;
22230;SDS011;11284;48.086;-1.652;2023-10-31T08:28:03;11.38;;;2.05;;
22230;SDS011;11284;48.086;-1.652;2023-10-31T08:30:29;15.07;;;2.63;;
22230;SDS011;11284;48.086;-1.652;2023-10-31T08:32:55;13.55;;;2.30;;
22230;SDS011;11284;48.086;-1.652;2023-10-31T08:35:21;15.23;;;2.80;;
22230;SDS011;11284;48.086;-1.652;2023-10-31T08:37:47;11.20;;;2.28;;
22230;SDS011;11284;48.086;-1.652;2023-10-31T08:40:13;14.73;;;2.67;;
22230;SDS011;11284;48.086;-1.652;2023-10-31T08:42:39;15.23;;;2.53;;
22230;SDS011;11284;48.086;-1.652;2023-10-31T08:45:06;11.38;;;2.80;;
22230;SDS011;11284;48.086;-1.652;2023-10-31T08:47:32;11.35;;;2.85;;
22230;SDS011;11284;48.086;-1.652;2023-10-31T08:49:59;11.10;;;2.72;;
22230;SDS011;11284;48.086;-1.652;2023-10-31T08:52:25;15.25;;;2.92;;
22230;SDS011;11284;48.086;-1.652;2023-10-31T08:54:50;11.63;;;2.20;;
22230;SDS011;11284;48.086;-1.652;2023-10-31T08:57:17;12.20;;;2.80;;
22230;SDS011;11284;48.086;-1.652;2023-10-31T08:59:43;14.60;;;2.78;;
22230;SDS011;11284;48.086;-1.652;2023-10-31T09:02:09;11.48;;;2.67;;
22230;SDS011;11284;48.086;-1.652;2023-10-31T09:04:35;16.67;;;2.78;;
22230;SDS011;11284;48.086;-1.652;2023-10-31T09:07:01;13.93;;;2.40;;
22230;SDS011;11284;48.086;-1.652;2023-10-31T09:09:27;12.43;;;2.47;;
22230;SDS011;11284;48.086;-1.652;2023-10-31T09:11:53;16.00;;;2.88;;
22230;SDS011;11284;48.086;-1.652;2023-10-31T09:14:19;15.27;;;2.63;;
22230;SDS011;11284;48.086;-1.652;2023-10-31T09:16:45;13.68;;;3.05;;
22230;SDS011;11284;48.086;-1.652;2023-10-31T09:19:11;15.55;;;3.25;;
22230;SDS011;11284;48.086;-1.652;2023-10-31T09:21:38;14.38;;;2.92;;
22230;SDS011;11284;48.086;-1.652;2023-10-31T09:24:04;12.32;;;2.85;;
22230;SDS011;11284;48.086;-1.652;2023-10-31T09:26:30;11.60;;;2.70;;
22230;SDS011;11284;48.086;-1.652;2023-10-31T09:28:56;13.30;;;2.70;;
22230;SDS011;11284;48.086;-1.652;2023-10-31T09:31:22;11.95;;;2.72;;
22230;SDS011;11284;48.086;-1.652;2023-10-31T09:33:48;23.65;;;9.38;;
22230;SDS011;11284;48.086;-1.652;2023-10-31T09:36:14;14.77;;;3.00;;
22230;SDS011;11284;48.086;-1.652;2023-10-31T09:38:40;13.00;;;2.25;;
22230;SDS011;11284;48.086;-1.652;2023-10-31T09:41:07;10.88;;;2.20;;
22230;SDS011;11284;48.086;-1.652;2023-10-31T09:43:33;13.80;;;2.78;;
22230;SDS011;11284;48.086;-1.652;2023-10-31T09:45:59;14.63;;;2.78;;
22230;SDS011;11284;48.086;-1.652;2023-10-31T09:48:26;11.43;;;2.28;;
22230;SDS011;11284;48.086;-1.652;2023-10-31T09:50:52;11.15;;;2.55;;
22230;SDS011;11284;48.086;-1.652;2023-10-31T09:53:18;15.55;;;2.88;;
22230;SDS011;11284;48.086;-1.652;2023-10-31T09:55:45;11.02;;;2.47;;
22230;SDS011;11284;48.086;-1.652;2023-10-31T09:58:12;16.48;;;2.83;;
22230;SDS011;11284;48.086;-1.652;2023-10-31T10:00:38;15.48;;;2.67;;
22230;SDS011;11284;48.086;-1.652;2023-10-31T10:03:06;12.77;;;3.10;;
22230;SDS011;11284;48.086;-1.652;2023-10-31T10:05:34;10.75;;;2.80;;
22230;SDS011;11284;48.086;-1.652;2023-10-31T10:08:00;13.27;;;2.67;;
22230;SDS011;11284;48.086;-1.652;2023-10-31T10:10:27;13.35;;;2.85;;
22230;SDS011;11284;48.086;-1.652;2023-10-31T10:12:55;13.23;;;2.92;;
22230;SDS011;11284;48.086;-1.652;2023-10-31T10:15:21;12.20;;;2.88;;
22230;SDS011;11284;48.086;-1.652;2023-10-31T10:17:51;11.18;;;2.25;;
22230;SDS011;11284;48.086;-1.652;2023-10-31T10:20:17;12.07;;;2.20;;
22230;SDS011;11284;48.086;-1.652;2023-10-31T10:22:43;14.75;;;2.55;;
22230;SDS011;11284;48.086;-1.652;2023-10-31T10:25:10;10.18;;;2.42;;
22230;SDS011;11284;48.086;-1.652;2023-10-31T10:27:41;10.25;;;2.00;;
22230;SDS011;11284;48.086;-1.652;2023-10-31T10:30:10;10.40;;;1.85;;
22230;SDS011;11284;48.086;-1.652;2023-10-31T10:32:36;10.27;;;2.33;;
22230;SDS011;11284;48.086;-1.652;2023-10-31T10:35:02;15.57;;;3.15;;
22230;SDS011;11284;48.086;-1.652;2023-10-31T10:37:29;11.68;;;2.10;;
22230;SDS011;11284;48.086;-1.652;2023-10-31T10:39:55;12.63;;;2.47;;
22230;SDS011;11284;48.086;-1.652;2023-10-31T10:42:31;13.02;;;2.00;;
22230;SDS011;11284;48.086;-1.652;2023-10-31T10:45:01;9.88;;;2.60;;
22230;SDS011;11284;48.086;-1.652;2023-10-31T10:47:27;11.50;;;2.55;;
22230;SDS011;11284;48.086;-1.652;2023-10-31T10:49:54;12.38;;;2.33;;
22230;SDS011;11284;48.086;-1.652;2023-10-31T10:54:53;11.20;;;2.97;;
22230;SDS011;11284;48.086;-1.652;2023-10-31T10:57:33;12.65;;;2.85;;
22230;SDS011;11284;48.086;-1.652;2023-10-31T11:00:03;11.45;;;2.92;;
22230;SDS011;11284;48.086;-1.652;2023-10-31T11:02:30;10.65;;;2.75;;
22230;SDS011;11284;48.086;-1.652;2023-10-31T11:04:56;12.02;;;2.05;;
22230;SDS011;11284;48.086;-1.652;2023-10-31T11:07:23;14.18;;;2.38;;
22230;SDS011;11284;48.086;-1.652;2023-10-31T11:09:50;11.45;;;2.63;;
22230;SDS011;11284;48.086;-1.652;2023-10-31T11:12:16;12.52;;;2.28;;
22230;SDS011;11284;48.086;-1.652;2023-10-31T11:14:42;13.93;;;2.78;;
22230;SDS011;11284;48.086;-1.652;2023-10-31T11:17:14;10.10;;;2.30;;
22230;SDS011;11284;48.086;-1.652;2023-10-31T11:19:44;12.77;;;2.63;;
22230;SDS011;11284;48.086;-1.652;2023-10-31T11:22:10;16.83;;;4.50;;
22230;SDS011;11284;48.086;-1.652;2023-10-31T11:24:36;10.35;;;3.15;;
22230;SDS011;11284;48.086;-1.652;2023-10-31T11:27:03;12.27;;;2.38;;
22230;SDS011;11284;48.086;-1.652;2023-10-31T11:29:33;13.90;;;2.55;;
22230;SDS011;11284;48.086;-1.652;2023-10-31T11:32:00;10.90;;;2.33;;
22230;SDS011;11284;48.086;-1.652;2023-10-31T11:34:26;10.70;;;2.30;;
22230;SDS011;11284;48.086;-1.652;2023-10-31T11:36:53;11.68;;;2.70;;
22230;SDS011;11284;48.086;-1.652;2023-10-31T11:39:20;12.95;;;2.92;;
22230;SDS011;11284;48.086;-1.652;2023-10-31T11:41:50;11.15;;;2.38;;
22230;SDS011;11284;48.086;-1.652;2023-10-31T11:44:19;10.68;;;2.65;;
22230;SDS011;11284;48.086;-1.652;2023-10-31T11:46:47;14.48;;;2.80;;
22230;SDS011;11284;48.086;-1.652;2023-10-31T11:49:17;9.25;;;2.72;;
22230;SDS011;11284;48.086;-1.652;2023-10-31T11:51:46;14.38;;;2.92;;
22230;SDS011;11284;48.086;-1.652;2023-10-31T11:54:13;14.75;;;2.70;;
22230;SDS011;11284;48.086;-1.652;2023-10-31T11:56:39;11.80;;;2.15;;
22230;SDS011;11284;48.086;-1.652;2023-10-31T11:59:05;12.60;;;2.20;;
22230;SDS011;11284;48.086;-1.652;2023-10-31T12:01:43;13.00;;;2.08;;
22230;SDS011;11284;48.086;-1.652;2023-10-31T12:04:20;14.60;;;2.35;;
22230;SDS011;11284;48.086;-1.652;2023-10-31T12:06:46;12.68;;;2.33;;
22230;SDS011;11284;48.086;-1.652;2023-10-31T12:09:22;12.75;;;2.45;;
22230;SDS011;11284;48.086;-1.652;2023-10-31T12:11:48;10.45;;;2.03;;
22230;SDS011;11284;48.086;-1.652;2023-10-31T12:14:17;11.05;;;2.42;;
22230;SDS011;11284;48.086;-1.652;2023-10-31T12:16:46;11.75;;;2.50;;
22230;SDS011;11284;48.086;-1.652;2023-10-31T12:19:13;13.73;;;2.83;;
22230;SDS011;11284;48.086;-1.652;2023-10-31T12:21:39;12.95;;;2.10;;
22230;SDS011;11284;48.086;-1.652;2023-10-31T12:24:07;12.98;;;2.80;;
22230;SDS011;11284;48.086;-1.652;2023-10-31T12:26:33;11.63;;;2.22;;
22230;SDS011;11284;48.086;-1.652;2023-10-31T12:29:06;11.25;;;2.50;;
22230;SDS011;11284;48.086;-1.652;2023-10-31T12:31:33;12.45;;;2.40;;
22230;SDS011;11284;48.086;-1.652;2023-10-31T12:34:05;10.93;;;2.63;;
22230;SDS011;11284;48.086;-1.652;2023-10-31T12:36:32;16.25;;;2.67;;
22230;SDS011;11284;48.086;-1.652;2023-10-31T12:38:58;12.35;;;2.90;;
22230;SDS011;11284;48.086;-1.652;2023-10-31T12:41:24;16.25;;;2.30;;
22230;SDS011;11284;48.086;-1.652;2023-10-31T12:43:50;9.52;;;2.20;;
22230;SDS011;11284;48.086;-1.652;2023-10-31T12:46:26;10.18;;;1.83;;
22230;SDS011;11284;48.086;-1.652;2023-10-31T12:48:52;12.35;;;2.20;;
22230;SDS011;11284;48.086;-1.652;2023-10-31T12:51:19;12.13;;;2.42;;
22230;SDS011;11284;48.086;-1.652;2023-10-31T12:53:48;13.95;;;3.13;;
22230;SDS011;11284;48.086;-1.652;2023-10-31T12:58:59;15.30;;;2.67;;
22230;SDS011;11284;48.086;-1.652;2023-10-31T13:01:25;13.15;;;2.17;;
22230;SDS011;11284;48.086;-1.652;2023-10-31T13:03:51;12.85;;;2.50;;
22230;SDS011;11284;48.086;-1.652;2023-10-31T13:06:18;12.10;;;2.47;;
22230;SDS011;11284;48.086;-1.652;2023-10-31T13:08:45;11.73;;;2.38;;
22230;SDS011;11284;48.086;-1.652;2023-10-31T13:11:11;12.35;;;2.67;;
22230;SDS011;11284;48.086;-1.652;2023-10-31T13:13:39;16.98;;;2.67;;
22230;SDS011;11284;48.086;-1.652;2023-10-31T13:16:05;15.98;;;2.83;;
22230;SDS011;11284;48.086;-1.652;2023-10-31T13:18:31;15.10;;;3.00;;
22230;SDS011;11284;48.086;-1.652;2023-10-31T13:20:57;13.02;;;2.50;;
22230;SDS011;11284;48.086;-1.652;2023-10-31T13:23:23;11.10;;;2.13;;
22230;SDS011;11284;48.086;-1.652;2023-10-31T13:25:49;9.55;;;2.33;;
22230;SDS011;11284;48.086;-1.652;2023-10-31T13:28:15;14.27;;;2.47;;
22230;SDS011;11284;48.086;-1.652;2023-10-31T13:30:41;12.45;;;2.10;;
22230;SDS011;11284;48.086;-1.652;2023-10-31T13:33:07;13.30;;;2.10;;
22230;SDS011;11284;48.086;-1.652;2023-10-31T13:35:33;13.35;;;2.13;;
22230;SDS011;11284;48.086;-1.652;2023-10-31T13:37:59;12.10;;;2.30;;
22230;SDS011;11284;48.086;-1.652;2023-10-31T13:40:25;13.70;;;2.50;;
22230;SDS011;11284;48.086;-1.652;2023-10-31T13:42:51;12.85;;;2.72;;
22230;SDS011;11284;48.086;-1.652;2023-10-31T13:45:18;9.95;;;2.47;;
22230;SDS011;11284;48.086;-1.652;2023-10-31T13:47:44;12.30;;;2.70;;
22230;SDS011;11284;48.086;-1.652;2023-10-31T13:50:10;16.35;;;3.40;;
22230;SDS011;11284;48.086;-1.652;2023-10-31T13:52:36;14.20;;;2.33;;
22230;SDS011;11284;48.086;-1.652;2023-10-31T13:55:04;14.35;;;2.83;;
22230;SDS011;11284;48.086;-1.652;2023-10-31T13:57:30;15.18;;;3.08;;
22230;SDS011;11284;48.086;-1.652;2023-10-31T13:59:56;16.52;;;3.53;;
22230;SDS011;11284;48.086;-1.652;2023-10-31T14:02:25;13.63;;;2.50;;
22230;SDS011;11284;48.086;-1.652;2023-10-31T14:04:53;14.32;;;2.72;;
22230;SDS011;11284;48.086;-1.652;2023-10-31T14:07:22;16.13;;;3.00;;
22230;SDS011;11284;48.086;-1.652;2023-10-31T14:09:49;13.02;;;2.83;;
22230;SDS011;11284;48.086;-1.652;2023-10-31T14:12:15;12.30;;;2.30;;
22230;SDS011;11284;48.086;-1.652;2023-10-31T14:14:41;9.27;;;2.58;;
22230;SDS011;11284;48.086;-1.652;2023-10-31T14:17:07;13.00;;;2.75;;
22230;SDS011;11284;48.086;-1.652;2023-10-31T14:19:33;16.73;;;3.08;;
22230;SDS011;11284;48.086;-1.652;2023-10-31T14:21:59;14.27;;;2.58;;
22230;SDS011;11284;48.086;-1.652;2023-10-31T14:24:26;15.25;;;2.45;;
22230;SDS011;11284;48.086;-1.652;2023-10-31T14:26:52;15.25;;;3.08;;
22230;SDS011;11284;48.086;-1.652;2023-10-31T14:29:18;14.85;;;2.60;;